Time;durP1;ratioP1;P1;durP2;ratioP2;P2;SDS_P1;SDS_P2;PMS_P1;PMS_P2;Temp;Humidity;BMP_temperature;BMP_pressure;BME280_temperature;BME280_humidity;BME280_pressure;Samples;Min_cycle;Max_cycle;Signal;HPM_P1;HPM_P2
2022/12/02 00:02:31;;;;;;;;;38.50;32.25;;;;;7.46;66.58;102132.25;6186389;23;47120;-88
2022/12/02 00:05:01;;;;;;;;;45.75;38.00;;;;;7.46;66.14;102138.38;6159466;23;45750;-87
2022/12/02 00:07:27;;;;;;;;;35.50;29.75;;;;;7.28;66.26;102101.09;6158998;23;45542;-87
2022/12/02 00:09:52;;;;;;;;;38.25;33.00;;;;;7.29;66.55;102103.75;6186994;23;45344;-87
2022/12/02 00:12:24;;;;;;;;;49.75;37.25;;;;;7.40;66.60;102118.94;6185798;23;45758;-87
2022/12/02 00:15:02;;;;;;;;;33.25;26.75;;;;;7.42;66.73;102128.63;6159574;23;45600;-86
2022/12/02 00:17:28;;;;;;;;;43.25;37.75;;;;;7.35;66.64;102110.03;6186178;23;45277;-87
2022/12/02 00:19:53;;;;;;;;;36.25;33.25;;;;;7.37;66.76;102122.34;6186914;23;45414;-88
2022/12/02 00:22:19;;;;;;;;;43.00;36.00;;;;;7.36;66.83;102124.94;6186146;23;47202;-91
2022/12/02 00:24:45;;;;;;;;;49.25;36.75;;;;;7.34;66.86;102126.59;6186006;23;45309;-89
2022/12/02 00:27:13;;;;;;;;;49.50;34.25;;;;;7.32;67.19;102120.41;6159787;23;45344;-85
2022/12/02 00:33:53;;;;;;;;;;;;;;;;;;;;;
2022/12/02 01:37:18;;;;;;;;;;;;;;;;;;;;;
2022/12/02 01:40:08;;;;;;;;;;;;;;;;;;;;;
2022/12/02 01:43:17;;;;;;;;;;;;;;;;;;;;;
2022/12/02 01:46:44;;;;;;;;;;;;;;;;;;;;;
2022/12/02 01:50:13;;;;;;;;;;;;;;;;;;;;;
2022/12/02 02:03:17;;;;;;;;;53.75;38.50;;;;;7.20;68.07;102066.81;5992619;23;45289;-88
2022/12/02 02:59:32;;;;;;;;;;;;;;;;;;;;;
2022/12/02 03:02:39;;;;;;;;;;;;;;;;;;;;;
2022/12/02 03:53:37;;;;;;;;;;;;;;;;;;;;;
2022/12/02 03:59:47;;;;;;;;;45.50;35.50;;;;;7.12;67.03;101963.56;6063041;23;46122;-88
2022/12/02 04:08:43;;;;;;;;;43.25;37.50;;;;;7.39;66.79;101991.41;6127731;23;45341;-87
2022/12/02 04:15:00;;;;;;;;;;;;;;;;;;;;;
2022/12/02 04:28:34;;;;;;;;;;;;;;;;;;;;;
2022/12/02 04:41:55;;;;;;;;;;;;;;;;;;;;;
2022/12/02 04:45:09;;;;;;;;;;;;;;;;;;;;;
2022/12/02 04:52:09;;;;;;;;;;;;;;;;;;;;;
2022/12/02 07:16:46;;;;;;;;;;;;;;;;;;;;;
2022/12/02 07:19:19;;;;;;;;;52.00;40.00;;;;;7.11;67.26;101857.03;6216100;22;71231;-88
2022/12/02 07:21:45;;;;;;;;;52.00;42.00;;;;;7.25;67.33;101886.25;6212811;22;46182;-89
2022/12/02 07:24:17;;;;;;;;;54.75;44.75;;;;;7.28;67.41;101897.69;6223632;22;45383;-88
2022/12/02 07:26:45;;;;;;;;;52.50;38.50;;;;;7.14;67.36;101877.19;6222167;22;45294;-91
2022/12/02 07:29:25;;;;;;;;;57.00;45.50;;;;;7.18;67.36;101879.03;6222709;22;45406;-89
2022/12/02 07:31:51;;;;;;;;;59.75;43.75;;;;;7.09;67.51;101852.59;6221766;22;48134;-89
2022/12/02 07:34:16;;;;;;;;;51.00;42.00;;;;;7.22;67.71;101873.06;6250848;22;45153;-90
2022/12/02 07:36:42;;;;;;;;;58.75;45.50;;;;;7.31;67.72;101888.16;6248361;22;45320;-85
2022/12/02 07:39:08;;;;;;;;;59.75;40.75;;;;;7.14;67.56;101856.25;6221628;22;46028;-89
2022/12/02 07:41:34;;;;;;;;;56.25;44.25;;;;;7.28;67.68;101892.44;6223181;22;45988;-88
2022/12/02 07:43:59;;;;;;;;;54.75;42.50;;;;;7.11;67.77;101864.91;6221780;22;45737;-87
2022/12/02 07:46:25;;;;;;;;;58.25;43.00;;;;;7.12;67.77;101863.16;6250751;22;45355;-86
2022/12/02 07:48:50;;;;;;;;;57.25;45.50;;;;;7.19;67.51;101878.19;6251425;22;45307;-88
2022/12/02 07:51:15;;;;;;;;;59.00;45.50;;;;;7.19;67.65;101891.28;6222601;22;46794;-88
2022/12/02 07:53:41;;;;;;;;;52.75;42.50;;;;;7.17;67.98;101893.88;6227181;22;45593;-86
2022/12/02 07:56:07;;;;;;;;;59.75;43.00;;;;;7.07;68.04;101869.16;6226134;22;45462;-88
2022/12/02 07:58:34;;;;;;;;;57.75;45.75;;;;;7.10;68.21;101873.59;6251023;22;45228;-85
2022/12/02 08:01:03;;;;;;;;;67.00;49.25;;;;;7.03;68.32;101869.00;6249355;22;46068;-87
2022/12/02 08:03:31;;;;;;;;;52.75;43.00;;;;;7.07;68.18;101874.38;6222890;22;45759;-88
2022/12/02 08:06:04;;;;;;;;;58.50;47.50;;;;;7.07;68.46;101863.91;6249625;22;45372;-85
2022/12/02 08:08:42;;;;;;;;;;;;;;;;;;;;;
2022/12/02 08:11:20;;;;;;;;;;;;;;;;;;;;;
2022/12/02 08:13:58;;;;;;;;;;;;;;;;;;;;;
2022/12/02 08:16:24;;;;;;;;;58.50;44.25;;;;;7.03;68.27;101871.63;6245674;22;67977;-84
2022/12/02 08:19:12;;;;;;;;;59.50;48.50;;;;;7.13;68.28;101889.38;6219470;22;45673;-84
2022/12/02 08:22:01;;;;;;;;;55.50;43.00;;;;;7.11;68.56;101890.19;6218677;22;45269;-84
2022/12/02 08:24:27;;;;;;;;;59.75;46.50;;;;;6.96;68.23;101867.06;6218719;22;45216;-82
2022/12/02 08:26:52;;;;;;;;;59.25;46.25;;;;;6.99;68.46;101880.25;6245424;22;45141;-83
2022/12/02 08:29:27;;;;;;;;;64.25;47.75;;;;;6.98;68.63;101875.88;6247180;22;45490;-83
2022/12/02 08:31:58;;;;;;;;;59.25;46.50;;;;;6.92;68.70;101866.06;6213973;22;47458;-83
2022/12/02 08:34:29;;;;;;;;;60.50;46.50;;;;;7.09;68.70;101905.88;6246307;22;45246;-83
2022/12/02 08:37:13;;;;;;;;;58.75;45.75;;;;;7.06;68.39;101898.81;6217861;22;45403;-84
2022/12/02 08:39:59;;;;;;;;;62.75;48.00;;;;;7.04;68.43;101895.25;6218999;22;45380;-83
2022/12/02 08:42:25;;;;;;;;;58.25;46.50;;;;;6.95;69.01;101879.28;6198137;22;47105;-84
2022/12/02 08:44:53;;;;;;;;;55.50;44.75;;;;;7.01;68.77;101878.56;6219592;22;45548;-80
2022/12/02 08:47:18;;;;;;;;;59.00;46.50;;;;;7.02;69.02;101875.97;6247359;22;45241;-80
2022/12/02 08:49:44;;;;;;;;;62.00;49.00;;;;;7.00;69.13;101882.00;6219008;22;45404;-79
2022/12/02 08:52:11;;;;;;;;;61.00;46.25;;;;;7.08;68.73;101890.97;6240949;22;46209;-80
2022/12/02 08:54:39;;;;;;;;;60.50;46.50;;;;;7.00;68.82;101877.69;6217568;22;45682;-80
2022/12/02 08:57:05;;;;;;;;;65.00;50.50;;;;;6.94;68.67;101868.75;6217843;22;45312;-80
2022/12/02 08:59:30;;;;;;;;;61.50;47.75;;;;;7.02;68.95;101875.97;6245351;22;45429;-81
2022/12/02 09:01:56;;;;;;;;;65.75;50.25;;;;;7.14;68.84;101885.06;6245637;22;45439;-79
2022/12/02 09:04:24;;;;;;;;;56.75;43.50;;;;;7.03;68.95;101867.31;6246605;22;45399;-81
2022/12/02 09:06:49;;;;;;;;;61.00;46.25;;;;;7.11;68.93;101879.69;6218652;22;45126;-80
2022/12/02 09:09:14;;;;;;;;;60.50;49.50;;;;;7.14;68.94;101882.44;6246268;22;45237;-79
2022/12/02 09:11:40;;;;;;;;;61.75;44.50;;;;;7.17;68.54;101886.03;6245058;22;46188;-79
2022/12/02 09:14:05;;;;;;;;;63.00;50.25;;;;;7.02;68.88;101852.41;6242621;22;45386;-81
2022/12/02 09:16:31;;;;;;;;;63.75;46.25;;;;;7.08;68.98;101872.63;6218166;22;45214;-80
2022/12/02 09:18:57;;;;;;;;;63.75;48.75;;;;;7.12;68.66;101866.66;6245197;22;45292;-82
2022/12/02 09:21:22;;;;;;;;;70.75;52.25;;;;;7.08;68.71;101862.16;6245484;22;45320;-82
2022/12/02 09:23:48;;;;;;;;;66.25;50.25;;;;;7.06;68.86;101858.66;6243359;22;45545;-81
2022/12/02 09:26:13;;;;;;;;;66.00;50.75;;;;;7.18;68.96;101889.53;6218336;22;45579;-81
2022/12/02 09:28:39;;;;;;;;;69.00;50.50;;;;;7.14;68.95;101875.47;6217033;22;45392;-81
2022/12/02 09:31:04;;;;;;;;;64.00;49.75;;;;;7.13;68.69;101867.53;6216039;22;47160;-82
2022/12/02 09:33:29;;;;;;;;;66.50;48.00;;;;;7.11;68.64;101875.38;6247481;22;45394;-83
2022/12/02 09:35:55;;;;;;;;;65.75;49.75;;;;;7.16;68.69;101883.34;6246311;22;45397;-82
2022/12/02 09:38:20;;;;;;;;;60.50;46.25;;;;;7.02;68.81;101843.69;6246721;22;45354;-85
2022/12/02 09:40:46;;;;;;;;;67.25;50.25;;;;;7.16;68.67;101871.13;6246356;22;45434;-81
2022/12/02 09:43:11;;;;;;;;;61.25;47.00;;;;;7.10;68.55;101859.59;6218636;22;45445;-83
2022/12/02 09:45:37;;;;;;;;;65.75;50.25;;;;;7.16;68.59;101865.00;6219177;22;45319;-84
2022/12/02 09:48:03;;;;;;;;;66.75;53.00;;;;;7.24;68.61;101853.94;6246195;22;45184;-83
2022/12/02 09:50:28;;;;;;;;;57.00;44.25;;;;;7.21;68.75;101843.34;6218478;22;47945;-81
2022/12/02 09:53:01;;;;;;;;;62.00;43.50;;;;;7.22;68.78;101839.03;6246324;22;45357;-83
2022/12/02 09:55:27;;;;;;;;;59.00;46.50;;;;;7.33;68.62;101850.66;6247939;22;45346;-84
2022/12/02 09:58:11;;;;;;;;;66.25;46.75;;;;;7.24;68.54;101832.06;6249294;22;45443;-83
2022/12/02 10:00:36;;;;;;;;;63.25;49.50;;;;;7.21;68.18;101826.75;6221385;22;46176;-83
2022/12/02 10:03:06;;;;;;;;;59.50;46.25;;;;;7.32;68.35;101850.63;6222890;22;45332;-83
2022/12/02 10:05:32;;;;;;;;;65.25;50.75;;;;;7.43;68.34;101850.09;6218762;22;45414;-83
2022/12/02 10:07:59;;;;;;;;;62.00;47.50;;;;;7.41;68.51;101846.53;6246546;22;45245;-84
2022/12/02 10:10:34;;;;;;;;;62.75;47.25;;;;;7.48;68.17;101860.66;6246602;22;45209;-83
2022/12/02 10:13:00;;;;;;;;;68.75;50.00;;;;;7.43;67.96;101851.78;6218875;22;45347;-83
2022/12/02 10:15:30;;;;;;;;;62.50;48.00;;;;;7.37;68.06;101842.03;6219446;22;45293;-83
2022/12/02 10:18:01;;;;;;;;;55.50;42.50;;;;;7.47;68.02;101851.91;6246228;22;45396;-83
2022/12/02 10:20:27;;;;;;;;;60.00;48.25;;;;;7.32;67.90;101825.31;6218250;22;48016;-83
2022/12/02 10:23:14;;;;;;;;;65.50;50.50;;;;;7.41;67.87;101850.88;6246394;22;46186;-84
2022/12/02 10:25:42;;;;;;;;;64.50;50.25;;;;;7.31;67.77;101839.25;6218363;22;45256;-83
2022/12/02 10:28:32;;;;;;;;;72.00;52.25;;;;;7.22;67.92;101816.31;6218512;22;45396;-84
2022/12/02 10:31:24;;;;;;;;;61.00;46.00;;;;;7.41;68.09;101841.28;6245434;22;46192;-83
2022/12/02 10:34:01;;;;;;;;;65.75;50.50;;;;;7.25;68.07;101805.94;6245873;22;45359;-83
2022/12/02 10:36:34;;;;;;;;;58.75;47.25;;;;;7.48;67.89;101827.50;6242981;22;45379;-83
2022/12/02 10:39:26;;;;;;;;;68.50;51.00;;;;;7.47;67.80;101823.09;6246735;22;45382;-83
2022/12/02 10:42:04;;;;;;;;;64.50;47.25;;;;;7.57;67.92;101823.34;6246995;22;45299;-83
2022/12/02 10:44:41;;;;;;;;;65.00;49.75;;;;;7.64;67.65;101812.16;6220095;22;45331;-83
2022/12/02 10:47:11;;;;;;;;;63.50;49.00;;;;;7.71;67.50;101816.72;6219657;22;45447;-84
2022/12/02 10:49:42;;;;;;;;;62.50;47.25;;;;;7.72;67.39;101811.53;6246552;22;45467;-83
2022/12/02 10:52:10;;;;;;;;;62.50;48.00;;;;;7.55;67.37;101786.63;6219503;22;47081;-83
2022/12/02 10:54:42;;;;;;;;;64.00;47.25;;;;;7.59;67.19;101801.59;6247474;22;45295;-84
2022/12/02 10:57:15;;;;;;;;;69.00;52.00;;;;;7.60;67.35;101798.09;6219956;22;45261;-83
2022/12/02 10:59:40;;;;;;;;;67.50;51.50;;;;;7.67;67.12;101810.53;6220180;22;45364;-83
2022/12/02 11:02:19;;;;;;;;;68.50;51.50;;;;;7.65;67.39;101803.47;6248399;22;46311;-84
2022/12/02 11:04:45;;;;;;;;;62.75;48.00;;;;;7.59;67.13;101792.81;6247655;22;45256;-83
2022/12/02 11:07:15;;;;;;;;;64.75;50.25;;;;;7.52;67.29;101773.44;6219610;22;45371;-82
2022/12/02 11:09:45;;;;;;;;;66.00;51.00;;;;;7.63;67.41;101797.31;6246764;22;45414;-82
2022/12/02 11:12:32;;;;;;;;;68.75;51.50;;;;;7.64;67.33;101793.81;6218858;22;48178;-82
2022/12/02 11:14:57;;;;;;;;;52.00;43.75;;;;;7.62;67.13;101787.69;6218367;22;45355;-83
2022/12/02 11:17:51;;;;;;;;;66.00;50.25;;;;;7.64;67.32;101785.97;6244141;22;45183;-82
2022/12/02 11:20:30;;;;;;;;;65.25;51.50;;;;;7.58;67.11;101772.72;6218727;22;45369;-83
2022/12/02 11:22:59;;;;;;;;;59.00;46.25;;;;;7.61;67.07;101785.88;6246638;22;45352;-83
2022/12/02 11:25:42;;;;;;;;;63.75;47.00;;;;;7.59;67.01;101778.00;6246514;22;45232;-82
2022/12/02 11:28:17;;;;;;;;;59.00;45.75;;;;;7.59;67.21;101769.22;6218750;22;45281;-88
2022/12/02 11:30:45;;;;;;;;;63.75;46.50;;;;;7.55;67.16;101759.53;6221984;22;45713;-89
2022/12/02 11:33:43;;;;;;;;;63.75;48.25;;;;;7.61;67.28;101772.78;6245542;22;47797;-87
2022/12/02 11:36:11;;;;;;;;;61.75;47.50;;;;;7.61;67.08;101765.81;6219217;22;45264;-88
2022/12/02 11:38:52;;;;;;;;;63.50;46.50;;;;;7.62;67.24;101764.09;6219543;22;45394;-81
2022/12/02 11:41:23;;;;;;;;;63.25;50.50;;;;;7.60;67.16;101765.78;6219148;22;45250;-82
2022/12/02 11:44:40;;;;;;;;;;;;;;;;;;;;;
2022/12/02 11:51:14;;;;;;;;;68.50;52.25;;;;;7.41;67.20;101753.94;6129110;22;45456;-86
2022/12/02 11:57:21;;;;;;;;;65.25;49.75;;;;;7.36;67.38;101753.81;6056297;23;46616;-85
2022/12/02 11:59:57;;;;;;;;;66.25;49.50;;;;;7.34;67.53;101747.66;6247424;22;45353;-83
2022/12/02 12:02:24;;;;;;;;;62.25;46.50;;;;;7.29;67.66;101741.41;6248624;22;45236;-82
2022/12/02 12:05:03;;;;;;;;;66.25;52.75;;;;;7.23;67.48;101730.78;6219113;22;45606;-85
2022/12/02 12:07:47;;;;;;;;;65.00;48.25;;;;;7.23;67.72;101730.78;6216605;22;47045;-82
2022/12/02 12:10:29;;;;;;;;;64.75;48.00;;;;;7.08;67.66;101707.69;6217680;22;45824;-84
2022/12/02 12:13:18;;;;;;;;;62.25;47.00;;;;;7.21;68.21;101727.22;6218349;22;45297;-83
2022/12/02 12:15:51;;;;;;;;;70.25;50.00;;;;;7.20;68.18;101723.72;6244507;22;45486;-84
2022/12/02 12:18:45;;;;;;;;;71.50;53.50;;;;;7.20;68.20;101725.47;6219245;22;48019;-84
2022/12/02 12:21:34;;;;;;;;;65.75;51.50;;;;;7.05;68.46;101698.03;6244969;22;45416;-84
2022/12/02 12:24:19;;;;;;;;;70.50;52.00;;;;;7.03;68.55;101690.97;6216964;22;45281;-85
2022/12/02 12:26:47;;;;;;;;;66.75;52.00;;;;;7.12;68.40;101712.19;6218243;22;45549;-83
2022/12/02 12:29:13;;;;;;;;;72.50;52.50;;;;;6.96;68.46;101681.22;6246135;22;45540;-84
2022/12/02 12:31:38;;;;;;;;;64.50;49.00;;;;;7.06;68.60;101702.44;6216863;22;45450;-84
2022/12/02 12:34:04;;;;;;;;;63.25;48.00;;;;;6.99;68.75;101686.53;6217234;22;45423;-83
2022/12/02 12:36:30;;;;;;;;;66.25;50.75;;;;;6.95;69.00;101668.94;6244264;22;45413;-84
2022/12/02 12:38:55;;;;;;;;;61.50;48.00;;;;;7.04;69.45;101680.56;6245773;22;46083;-83
2022/12/02 12:41:26;;;;;;;;;65.50;49.25;;;;;6.98;69.35;101666.44;6246280;22;45482;-83
2022/12/02 12:43:52;;;;;;;;;61.75;48.75;;;;;6.99;69.54;101663.84;6220518;22;45359;-83
2022/12/02 12:46:17;;;;;;;;;65.00;52.25;;;;;7.13;69.55;101679.00;6246339;22;45490;-83
2022/12/02 12:48:43;;;;;;;;;61.25;47.00;;;;;7.14;69.62;101680.81;6216985;22;47132;-83
2022/12/02 12:51:08;;;;;;;;;64.75;51.25;;;;;7.05;69.80;101657.88;6244723;22;45433;-85
2022/12/02 12:53:34;;;;;;;;;65.25;51.25;;;;;7.00;69.79;101643.78;6245456;22;45299;-84
2022/12/02 12:55:59;;;;;;;;;60.25;46.25;;;;;7.15;69.84;101641.53;6246419;22;45441;-86
2022/12/02 12:58:25;;;;;;;;;64.50;49.50;;;;;7.20;69.70;101646.91;6246868;22;45541;-83
2022/12/02 13:00:50;;;;;;;;;64.25;51.00;;;;;7.24;69.39;101656.59;6245890;22;45458;-81
2022/12/02 13:03:15;;;;;;;;;65.25;49.50;;;;;7.17;69.34;101636.38;6216912;22;45296;-80
2022/12/02 13:05:41;;;;;;;;;66.50;49.75;;;;;7.28;69.50;101640.13;6217825;22;45427;-81
2022/12/02 13:08:06;;;;;;;;;60.75;49.50;;;;;7.19;69.50;101625.09;6244936;22;45404;-80
2022/12/02 13:10:32;;;;;;;;;61.75;46.75;;;;;7.22;69.19;101624.28;6245106;22;45447;-81
2022/12/02 13:12:58;;;;;;;;;61.00;49.50;;;;;7.36;69.12;101651.66;6217877;22;45400;-82
2022/12/02 13:15:23;;;;;;;;;62.25;46.50;;;;;7.22;69.17;101627.78;6244849;22;45443;-83
2022/12/02 13:17:49;;;;;;;;;64.00;50.50;;;;;7.27;69.31;101636.63;6245209;22;46175;-84
2022/12/02 13:20:15;;;;;;;;;67.00;52.25;;;;;7.32;69.13;101641.94;6216697;22;45317;-84
2022/12/02 13:22:44;;;;;;;;;66.25;50.50;;;;;7.32;69.26;101638.44;6217843;22;45373;-85
2022/12/02 13:25:11;;;;;;;;;63.00;48.25;;;;;7.31;69.08;101641.94;6218900;22;45411;-85
2022/12/02 13:27:40;;;;;;;;;59.00;46.75;;;;;7.28;69.03;101629.66;6218982;22;47136;-85
2022/12/02 13:30:31;;;;;;;;;63.00;48.75;;;;;7.21;68.91;101610.25;6245504;22;45282;-86
2022/12/02 13:32:57;;;;;;;;;59.50;48.00;;;;;7.33;68.84;101622.78;6207470;22;45383;-87
2022/12/02 13:35:25;;;;;;;;;60.25;44.25;;;;;7.27;68.73;101615.69;6247078;22;45410;-84
2022/12/02 13:37:50;;;;;;;;;60.50;48.25;;;;;7.21;68.91;101612.00;6244039;22;46738;-84
2022/12/02 13:40:17;;;;;;;;;60.50;46.50;;;;;7.18;68.91;101615.44;6216365;22;45289;-84
2022/12/02 13:42:43;;;;;;;;;61.50;46.25;;;;;7.15;68.70;101615.38;6245568;22;45537;-83
2022/12/02 13:45:09;;;;;;;;;61.50;48.00;;;;;7.03;68.88;101602.88;6218206;22;45370;-81
2022/12/02 13:47:35;;;;;;;;;66.00;51.00;;;;;7.02;68.84;101588.00;6245208;22;45514;-83
2022/12/02 13:50:00;;;;;;;;;62.50;47.75;;;;;7.10;68.86;101608.25;6245328;22;45644;-82
2022/12/02 13:52:26;;;;;;;;;58.25;43.25;;;;;7.13;68.97;101626.66;6216813;22;45419;-82
2022/12/02 13:54:51;;;;;;;;;62.25;46.00;;;;;7.01;68.93;101604.56;6246175;22;45288;-83
2022/12/02 13:57:17;;;;;;;;;66.75;49.25;;;;;7.07;68.92;101622.16;6245662;22;45383;-82
2022/12/02 13:59:42;;;;;;;;;63.75;49.50;;;;;6.99;69.33;101589.66;6245895;22;45396;-82
2022/12/02 14:02:11;;;;;;;;;59.75;47.75;;;;;7.05;69.08;101595.03;6247031;22;45421;-82
2022/12/02 14:04:36;;;;;;;;;56.00;45.75;;;;;6.96;69.11;101585.22;6217010;22;45229;-82
2022/12/02 14:07:02;;;;;;;;;64.25;49.00;;;;;7.12;69.21;101598.72;6216747;22;46411;-83
2022/12/02 14:09:28;;;;;;;;;62.00;47.00;;;;;7.11;69.13;101596.91;6244735;22;45339;-81
2022/12/02 14:11:54;;;;;;;;;62.25;48.50;;;;;7.16;69.09;101588.31;6217270;22;45515;-81
2022/12/02 14:14:19;;;;;;;;;67.50;51.00;;;;;7.16;69.23;101580.47;6245618;22;45510;-82
2022/12/02 14:16:45;;;;;;;;;60.50;46.75;;;;;7.08;69.36;101553.22;6246354;22;45457;-82
2022/12/02 14:19:11;;;;;;;;;64.75;50.50;;;;;7.19;69.33;101571.78;6246342;22;45438;-82
2022/12/02 14:21:36;;;;;;;;;62.75;47.75;;;;;7.08;69.07;101553.22;6246854;22;45398;-82
2022/12/02 14:24:02;;;;;;;;;62.50;46.50;;;;;7.21;68.77;101583.19;6246145;22;45433;-82
2022/12/02 14:26:29;;;;;;;;;64.25;49.00;;;;;7.12;69.09;101569.91;6218678;22;46699;-84
2022/12/02 14:28:58;;;;;;;;;64.00;47.50;;;;;7.20;69.12;101574.47;6245983;22;45344;-82
2022/12/02 14:31:24;;;;;;;;;63.00;51.00;;;;;7.21;69.05;101586.69;6218709;22;45468;-82
2022/12/02 14:33:49;;;;;;;;;65.00;45.25;;;;;7.19;68.81;101571.78;6219231;22;45443;-82
2022/12/02 14:36:16;;;;;;;;;62.25;49.50;;;;;7.07;68.75;101560.19;6245704;22;45422;-82
2022/12/02 14:38:41;;;;;;;;;59.50;45.50;;;;;7.19;69.10;101588.41;6218979;22;45277;-82
2022/12/02 14:41:07;;;;;;;;;57.00;45.00;;;;;6.98;68.72;101553.88;6246393;22;45372;-82
2022/12/02 14:43:32;;;;;;;;;61.75;47.00;;;;;7.12;69.09;101576.03;6218333;22;45386;-82
2022/12/02 14:45:57;;;;;;;;;63.50;50.75;;;;;7.14;68.86;101570.84;6247047;22;45491;-82
2022/12/02 14:48:23;;;;;;;;;58.25;43.75;;;;;7.01;68.88;101546.09;6246385;22;45212;-82
2022/12/02 14:50:53;;;;;;;;;58.25;46.25;;;;;7.08;69.17;101563.69;6218415;22;45303;-82
2022/12/02 14:53:19;;;;;;;;;62.75;47.25;;;;;7.16;69.12;101566.50;6218805;22;45621;-83
2022/12/02 14:55:44;;;;;;;;;63.25;46.00;;;;;7.05;68.83;101551.41;6218423;22;47231;-82
2022/12/02 14:58:10;;;;;;;;;58.25;42.25;;;;;6.98;68.72;101540.78;6247553;22;45342;-82
2022/12/02 15:00:35;;;;;;;;;54.50;43.75;;;;;7.12;68.97;101562.06;6247580;22;45430;-82
2022/12/02 15:03:01;;;;;;;;;55.50;43.25;;;;;7.11;69.09;101557.63;6219123;22;45840;-82
2022/12/02 15:05:26;;;;;;;;;56.25;46.00;;;;;7.13;69.00;101567.31;6218353;22;46338;-82
2022/12/02 15:07:55;;;;;;;;;59.00;46.75;;;;;7.16;68.81;101569.09;6245064;22;45484;-83
2022/12/02 15:10:20;;;;;;;;;57.25;46.00;;;;;7.02;69.14;101547.84;6217102;22;45309;-82
2022/12/02 15:12:46;;;;;;;;;60.75;43.75;;;;;7.03;69.11;101560.06;6245735;22;45241;-82
2022/12/02 15:15:11;;;;;;;;;57.50;45.50;;;;;7.13;69.18;101576.91;6245652;22;45398;-82
2022/12/02 15:17:38;;;;;;;;;56.00;42.75;;;;;7.13;69.18;101569.03;6218241;22;45806;-83
2022/12/02 15:20:05;;;;;;;;;57.75;44.50;;;;;7.01;69.26;101556.56;6219045;22;45254;-82
2022/12/02 15:22:30;;;;;;;;;53.50;40.75;;;;;6.95;68.97;101552.06;6245319;22;45519;-83
2022/12/02 15:24:56;;;;;;;;;57.50;43.00;;;;;6.98;69.07;101553.88;6218133;22;48164;-83
2022/12/02 15:27:22;;;;;;;;;57.50;43.00;;;;;6.89;69.30;101538.81;6245283;22;45366;-83
2022/12/02 15:29:48;;;;;;;;;53.00;42.50;;;;;7.04;69.40;101569.72;6218776;22;45336;-83
2022/12/02 15:32:13;;;;;;;;;61.25;47.00;;;;;6.87;69.41;101540.53;6218217;22;45335;-83
2022/12/02 15:34:39;;;;;;;;;50.50;39.00;;;;;6.89;69.74;101545.78;6245860;22;45280;-83
2022/12/02 15:37:04;;;;;;;;;54.50;38.50;;;;;6.82;69.75;101540.41;6246258;22;45264;-82
2022/12/02 15:39:29;;;;;;;;;53.25;39.50;;;;;6.76;70.25;101532.41;6218262;22;45323;-82
2022/12/02 15:41:55;;;;;;;;;52.75;43.00;;;;;6.93;70.23;101565.97;6245095;22;45326;-82
2022/12/02 15:44:20;;;;;;;;;56.75;42.00;;;;;6.92;70.73;101564.16;6245694;22;46151;-82
2022/12/02 15:46:48;;;;;;;;;58.25;46.50;;;;;6.86;70.83;101562.28;6218271;22;45320;-82
2022/12/02 15:49:14;;;;;;;;;57.25;43.50;;;;;6.85;71.08;101555.31;6219322;22;45660;-80
2022/12/02 15:51:39;;;;;;;;;57.25;44.25;;;;;6.77;71.19;101546.38;6245654;22;45572;-80
2022/12/02 15:54:05;;;;;;;;;59.75;46.00;;;;;6.88;71.29;101552.75;6217874;22;46139;-83
2022/12/02 15:56:38;;;;;;;;;56.00;42.50;;;;;6.87;71.44;101569.31;6245844;22;45691;-83
2022/12/02 15:59:04;;;;;;;;;46.75;39.25;;;;;6.74;71.50;101555.03;6245437;22;45246;-84
2022/12/02 16:01:30;;;;;;;;;54.25;39.75;;;;;6.69;71.32;101558.38;6218330;22;45499;-81
2022/12/02 16:03:55;;;;;;;;;51.75;42.00;;;;;6.74;71.69;101572.47;6247603;22;45369;-85
2022/12/02 16:06:21;;;;;;;;;52.00;43.00;;;;;6.67;72.02;101555.72;6218372;22;45442;-87
2022/12/02 16:08:48;;;;;;;;;50.75;38.75;;;;;6.55;72.09;101538.00;6246859;22;45344;-86
2022/12/02 16:11:42;;;;;;;;;51.25;39.00;;;;;6.60;72.20;101541.63;6245929;22;45439;-85
2022/12/02 16:39:12;;;;;;;;;39.25;35.75;;;;;6.66;73.21;101572.28;5887157;24;45737;-82
2022/12/02 16:42:42;;;;;;;;;;;;;;;;;;;;;
2022/12/02 16:45:11;;;;;;;;;59.50;44.75;;;;;6.46;72.93;101542.97;6012502;23;71593;-89
2022/12/02 16:51:17;;;;;;;;;49.25;38.75;;;;;6.67;72.80;101591.47;5977702;23;45456;-89
2022/12/02 17:22:07;;;;;;;;;;;;;;;;;;;;;
2022/12/02 17:27:59;;;;;;;;;41.00;35.75;;;;;6.27;70.46;101572.09;5949180;23;45401;-85
2022/12/02 17:30:27;;;;;;;;;51.00;37.25;;;;;6.11;70.36;101558.59;5949729;23;45441;-83
2022/12/02 19:16:42;;;;;;;;;;;;;;;;;;;;;
2022/12/02 19:19:58;;;;;;;;;;;;;;;;;;;;;
2022/12/02 19:22:37;;;;;;;;;48.50;41.00;;;;;5.46;71.16;101542.78;6146502;23;67900;-85
2022/12/02 19:25:12;;;;;;;;;54.75;42.25;;;;;5.50;71.38;101542.00;6192127;22;45213;-86
2022/12/02 19:27:54;;;;;;;;;56.25;44.50;;;;;5.49;71.62;101540.25;6161266;23;46562;-87
2022/12/02 19:30:23;;;;;;;;;54.00;41.50;;;;;5.51;71.00;101545.53;6166461;23;45336;-87
2022/12/02 19:37:16;;;;;;;;;;;;;;;;;;;;;
2022/12/02 19:44:16;;;;;;;;;;;;;;;;;;;;;
2022/12/02 19:46:42;;;;;;;;;58.00;40.75;;;;;5.33;71.21;101511.91;5891056;23;68318;-82
2022/12/02 19:49:30;;;;;;;;;51.25;40.50;;;;;5.41;71.44;101520.88;6093497;22;45495;-86
2022/12/02 19:51:57;;;;;;;;;60.25;46.00;;;;;5.52;71.51;101535.13;6246323;22;47900;-82
2022/12/02 19:55:05;;;;;;;;;48.00;38.75;;;;;5.56;71.10;101543.94;6274658;22;45791;-87
2022/12/02 20:55:31;;;;;;;;;30.00;26.25;;;;;5.69;71.25;101526.88;6002996;23;45337;-83
2022/12/02 21:36:03;;;;;;;;;;;;;;;;;;;;;
2022/12/02 21:43:18;;;;;;;;;;;;;;;;;;;;;
2022/12/02 21:52:54;;;;;;;;;;;;;;;;;;;;;
2022/12/02 21:55:22;;;;;;;;;24.00;17.25;;;;;5.35;71.79;101525.91;6126083;23;67087;-83
2022/12/02 21:57:56;;;;;;;;;19.75;17.00;;;;;5.31;72.60;101527.53;6137795;23;45572;-83
2022/12/02 22:10:34;;;;;;;;;17.00;16.25;;;;;5.26;72.16;101516.03;6074641;23;45557;-83
2022/12/02 22:13:12;;;;;;;;;20.75;18.50;;;;;5.37;72.20;101526.81;6076597;23;45717;-85
2022/12/02 22:19:40;;;;;;;;;17.50;15.00;;;;;5.40;72.53;101524.31;6172423;22;45496;-87
2022/12/02 22:22:40;;;;;;;;;;;;;;;;;;;;;
2022/12/02 22:28:39;;;;;;;;;19.75;19.25;;;;;5.45;72.48;101524.44;6019652;23;44847;-87
2022/12/02 22:31:30;;;;;;;;;;;;;;;;;;;;;
2022/12/02 22:34:33;;;;;;;;;30.25;24.25;;;;;5.48;72.46;101525.44;6255930;22;72016;-87
2022/12/02 22:44:52;;;;;;;;;30.25;26.00;;;;;5.30;72.35;101484.00;5949547;23;45198;-89
